WZZ5ZY LZKZ-LZIB
Flight info
| Callsign | WZZ5ZY |
|---|---|
| Flight time | 0h 34m |
| Altitude | 24000 |
| Route | TAKOS DCT KALIF DCT SLC N190 NIT |
| Aircraft | A321/M-SDE1E2E3FGIJ1J4RWXY/LB1 |
Departure
| Time | 2026-05-08 16:25 |
|---|---|
| Airport | Košice International Airport (LZKZ) |
Arrival
| Time | 2026-05-08 16:59 |
|---|---|
| Airport | M. R. Štefánik Airport (LZIB) |
| Time | Latitude | Longitude | Altitude | Speed | Heading |
|---|---|---|---|---|---|
| 2026-05-08 16:12 | 48.67222 | 21.24089 | 757 ft | 0 kts | 12° |
| 2026-05-08 16:22 | 48.67229 | 21.24091 | 757 ft | 2 kts | 12° |
| 2026-05-08 16:22 | 48.67248 | 21.24098 | 756 ft | 4 kts | 13° |
| 2026-05-08 16:22 | 48.67269 | 21.24133 | 754 ft | 7 kts | 78° |
| 2026-05-08 16:23 | 48.67261 | 21.24201 | 756 ft | 0 kts | 103° |
| 2026-05-08 16:23 | 48.67259 | 21.24215 | 754 ft | 5 kts | 103° |
| 2026-05-08 16:23 | 48.67245 | 21.24303 | 755 ft | 13 kts | 104° |
| 2026-05-08 16:24 | 48.67213 | 21.24428 | 756 ft | 11 kts | 150° |
| 2026-05-08 16:24 | 48.67138 | 21.24408 | 758 ft | 15 kts | 193° |
| 2026-05-08 16:24 | 48.66801 | 21.24290 | 760 ft | 87 kts | 193° |
| 2026-05-08 16:24 | 48.65987 | 21.24007 | 755 ft | 150 kts | 193° |
| 2026-05-08 16:25 | 48.64856 | 21.23607 | 1110 ft | 166 kts | 194° |
| 2026-05-08 16:25 | 48.63751 | 21.23203 | 1858 ft | 165 kts | 192° |
| 2026-05-08 16:25 | 48.62643 | 21.22811 | 2440 ft | 165 kts | 192° |
| 2026-05-08 16:25 | 48.61456 | 21.22400 | 2745 ft | 186 kts | 192° |
| 2026-05-08 16:26 | 48.60121 | 21.21940 | 3007 ft | 208 kts | 192° |
| 2026-05-08 16:26 | 48.58653 | 21.21433 | 3387 ft | 222 kts | 193° |
| 2026-05-08 16:26 | 48.57148 | 21.20903 | 4123 ft | 222 kts | 197° |
| 2026-05-08 16:26 | 48.55857 | 21.19700 | 4850 ft | 221 kts | 235° |
| 2026-05-08 16:27 | 48.55334 | 21.17516 | 5314 ft | 234 kts | 272° |
| 2026-05-08 16:27 | 48.55569 | 21.14978 | 5651 ft | 255 kts | 282° |
| 2026-05-08 16:27 | 48.55979 | 21.12319 | 6286 ft | 264 kts | 284° |
| 2026-05-08 16:27 | 48.56437 | 21.09617 | 7003 ft | 268 kts | 284° |
| 2026-05-08 16:28 | 48.56902 | 21.06875 | 7750 ft | 271 kts | 284° |
| 2026-05-08 16:28 | 48.57188 | 21.04062 | 8507 ft | 273 kts | 272° |
| 2026-05-08 16:28 | 48.57261 | 21.01188 | 9287 ft | 275 kts | 271° |
| 2026-05-08 16:28 | 48.57315 | 20.98282 | 10055 ft | 278 kts | 271° |
| 2026-05-08 16:29 | 48.57361 | 20.95281 | 10390 ft | 297 kts | 271° |
| 2026-05-08 16:29 | 48.57407 | 20.92046 | 10561 ft | 319 kts | 271° |
| 2026-05-08 16:29 | 48.57454 | 20.88633 | 11045 ft | 329 kts | 271° |
| 2026-05-08 16:29 | 48.57503 | 20.85167 | 11713 ft | 332 kts | 271° |
| 2026-05-08 16:30 | 48.57552 | 20.81663 | 12404 ft | 335 kts | 271° |
| 2026-05-08 16:30 | 48.57602 | 20.78179 | 13073 ft | 338 kts | 271° |
| 2026-05-08 16:30 | 48.57656 | 20.74615 | 13753 ft | 341 kts | 271° |
| 2026-05-08 16:30 | 48.57711 | 20.71018 | 14374 ft | 344 kts | 271° |
| 2026-05-08 16:31 | 48.57763 | 20.67400 | 14984 ft | 347 kts | 271° |
| 2026-05-08 16:31 | 48.57813 | 20.63740 | 15613 ft | 349 kts | 271° |
| 2026-05-08 16:31 | 48.57862 | 20.60060 | 16242 ft | 352 kts | 271° |
| 2026-05-08 16:31 | 48.57907 | 20.56351 | 16863 ft | 355 kts | 270° |
| 2026-05-08 16:32 | 48.57952 | 20.52605 | 17479 ft | 358 kts | 270° |
| 2026-05-08 16:32 | 48.57997 | 20.48832 | 18097 ft | 361 kts | 270° |
| 2026-05-08 16:32 | 48.58043 | 20.45027 | 18658 ft | 364 kts | 270° |
| 2026-05-08 16:32 | 48.58090 | 20.41199 | 18918 ft | 365 kts | 270° |
| 2026-05-08 16:33 | 48.58133 | 20.37378 | 18987 ft | 362 kts | 271° |
| 2026-05-08 16:33 | 48.58171 | 20.33577 | 19010 ft | 361 kts | 270° |
| 2026-05-08 16:33 | 48.58207 | 20.29791 | 19004 ft | 361 kts | 270° |
| 2026-05-08 16:33 | 48.58210 | 20.27286 | 19004 ft | 360 kts | 267° |
| 2026-05-08 16:34 | 48.57906 | 20.23541 | 19002 ft | 360 kts | 261° |
| 2026-05-08 16:34 | 48.57500 | 20.19810 | 19001 ft | 360 kts | 261° |
| 2026-05-08 16:34 | 48.57096 | 20.16077 | 19001 ft | 360 kts | 261° |
| 2026-05-08 16:34 | 48.56693 | 20.12352 | 18999 ft | 360 kts | 261° |
| 2026-05-08 16:35 | 48.56290 | 20.08620 | 19001 ft | 360 kts | 261° |
| 2026-05-08 16:35 | 48.55886 | 20.04886 | 18995 ft | 361 kts | 261° |
| 2026-05-08 16:35 | 48.55478 | 20.01151 | 18997 ft | 361 kts | 261° |
| 2026-05-08 16:35 | 48.55070 | 19.97418 | 18999 ft | 361 kts | 261° |
| 2026-05-08 16:36 | 48.54661 | 19.93681 | 18997 ft | 361 kts | 261° |
| 2026-05-08 16:36 | 48.54252 | 19.89949 | 18997 ft | 361 kts | 261° |
| 2026-05-08 16:36 | 48.53842 | 19.86211 | 18999 ft | 361 kts | 261° |
| 2026-05-08 16:36 | 48.53428 | 19.82480 | 19005 ft | 361 kts | 260° |
| 2026-05-08 16:37 | 48.53010 | 19.78747 | 19006 ft | 361 kts | 260° |
| 2026-05-08 16:37 | 48.52588 | 19.75010 | 19008 ft | 361 kts | 260° |
| 2026-05-08 16:37 | 48.52165 | 19.71267 | 19007 ft | 361 kts | 260° |
| 2026-05-08 16:37 | 48.51743 | 19.67533 | 19008 ft | 361 kts | 260° |
| 2026-05-08 16:38 | 48.51320 | 19.63799 | 19008 ft | 361 kts | 260° |
| 2026-05-08 16:38 | 48.50898 | 19.60070 | 19007 ft | 361 kts | 260° |
| 2026-05-08 16:38 | 48.50479 | 19.56339 | 18999 ft | 361 kts | 260° |
| 2026-05-08 16:38 | 48.50059 | 19.52615 | 19005 ft | 361 kts | 260° |
| 2026-05-08 16:39 | 48.49635 | 19.48887 | 19005 ft | 361 kts | 260° |
| 2026-05-08 16:39 | 48.49210 | 19.45167 | 19006 ft | 361 kts | 260° |
| 2026-05-08 16:39 | 48.48784 | 19.41435 | 19004 ft | 361 kts | 260° |
| 2026-05-08 16:39 | 48.48358 | 19.37714 | 19005 ft | 361 kts | 260° |
| 2026-05-08 16:40 | 48.47930 | 19.33993 | 19012 ft | 360 kts | 260° |
| 2026-05-08 16:40 | 48.47501 | 19.30274 | 19009 ft | 360 kts | 259° |
| 2026-05-08 16:40 | 48.47067 | 19.26546 | 19004 ft | 361 kts | 259° |
| 2026-05-08 16:40 | 48.46633 | 19.22824 | 19005 ft | 361 kts | 259° |
| 2026-05-08 16:41 | 48.46196 | 19.19097 | 19004 ft | 361 kts | 259° |
| 2026-05-08 16:41 | 48.45758 | 19.15373 | 19006 ft | 361 kts | 259° |
| 2026-05-08 16:41 | 48.45318 | 19.11643 | 19012 ft | 361 kts | 259° |
| 2026-05-08 16:42 | 48.44301 | 19.04233 | 19009 ft | 361 kts | 257° |
| 2026-05-08 16:42 | 48.43738 | 19.00547 | 19010 ft | 361 kts | 257° |
| 2026-05-08 16:42 | 48.43164 | 18.96866 | 19011 ft | 361 kts | 256° |
| 2026-05-08 16:42 | 48.42592 | 18.93186 | 19016 ft | 361 kts | 257° |
| 2026-05-08 16:43 | 48.42025 | 18.89501 | 19013 ft | 361 kts | 257° |
| 2026-05-08 16:43 | 48.41464 | 18.85820 | 19014 ft | 361 kts | 257° |
| 2026-05-08 16:43 | 48.40909 | 18.82131 | 19012 ft | 361 kts | 257° |
| 2026-05-08 16:43 | 48.40355 | 18.78441 | 19011 ft | 362 kts | 257° |
| 2026-05-08 16:44 | 48.39801 | 18.74745 | 19010 ft | 362 kts | 257° |
| 2026-05-08 16:44 | 48.39248 | 18.71053 | 19018 ft | 362 kts | 257° |
| 2026-05-08 16:44 | 48.38690 | 18.67352 | 19018 ft | 362 kts | 257° |
| 2026-05-08 16:44 | 48.38127 | 18.63657 | 19018 ft | 363 kts | 257° |
| 2026-05-08 16:45 | 48.37560 | 18.59960 | 19016 ft | 363 kts | 257° |
| 2026-05-08 16:45 | 48.36993 | 18.56269 | 19016 ft | 363 kts | 257° |
| 2026-05-08 16:45 | 48.36428 | 18.52581 | 18924 ft | 359 kts | 257° |
| 2026-05-08 16:45 | 48.35876 | 18.48970 | 18638 ft | 351 kts | 257° |
| 2026-05-08 16:46 | 48.35332 | 18.45408 | 18132 ft | 349 kts | 257° |
| 2026-05-08 16:46 | 48.34793 | 18.41876 | 17669 ft | 345 kts | 257° |
| 2026-05-08 16:46 | 48.34257 | 18.38385 | 17231 ft | 341 kts | 257° |
| 2026-05-08 16:46 | 48.33725 | 18.34941 | 16808 ft | 336 kts | 256° |
| 2026-05-08 16:47 | 48.33195 | 18.31534 | 16378 ft | 333 kts | 256° |
| 2026-05-08 16:47 | 48.32672 | 18.28172 | 15955 ft | 329 kts | 256° |
| 2026-05-08 16:47 | 48.32154 | 18.24847 | 15539 ft | 325 kts | 256° |
| 2026-05-08 16:47 | 48.31637 | 18.21551 | 15129 ft | 323 kts | 256° |
| 2026-05-08 16:48 | 48.31126 | 18.18286 | 14725 ft | 320 kts | 256° |
| 2026-05-08 16:48 | 48.30618 | 18.15048 | 14312 ft | 317 kts | 256° |
| 2026-05-08 16:48 | 48.30112 | 18.11836 | 13908 ft | 315 kts | 256° |
| 2026-05-08 16:48 | 48.29611 | 18.08647 | 13484 ft | 313 kts | 256° |
| 2026-05-08 16:49 | 48.29124 | 18.05526 | 13090 ft | 309 kts | 257° |
| 2026-05-08 16:49 | 48.28813 | 18.02363 | 12859 ft | 303 kts | 262° |
| 2026-05-08 16:49 | 48.28531 | 17.99169 | 12684 ft | 305 kts | 262° |
| 2026-05-08 16:49 | 48.28244 | 17.96024 | 12488 ft | 304 kts | 262° |
| 2026-05-08 16:50 | 48.27955 | 17.92890 | 12290 ft | 303 kts | 262° |
| 2026-05-08 16:50 | 48.27672 | 17.89810 | 12104 ft | 301 kts | 262° |
| 2026-05-08 16:50 | 48.27387 | 17.86699 | 11872 ft | 299 kts | 262° |
| 2026-05-08 16:50 | 48.27108 | 17.83619 | 11487 ft | 297 kts | 262° |
| 2026-05-08 16:51 | 48.26717 | 17.80600 | 11124 ft | 294 kts | 252° |
| 2026-05-08 16:51 | 48.25875 | 17.77827 | 10751 ft | 291 kts | 239° |
| 2026-05-08 16:51 | 48.24636 | 17.75476 | 10071 ft | 287 kts | 226° |
| 2026-05-08 16:51 | 48.23233 | 17.73440 | 9494 ft | 275 kts | 227° |
| 2026-05-08 16:52 | 48.21889 | 17.71434 | 8767 ft | 271 kts | 227° |
| 2026-05-08 16:52 | 48.20560 | 17.69448 | 8029 ft | 269 kts | 227° |
| 2026-05-08 16:52 | 48.19239 | 17.67471 | 7278 ft | 268 kts | 228° |
| 2026-05-08 16:52 | 48.17924 | 17.65504 | 6564 ft | 266 kts | 227° |
| 2026-05-08 16:53 | 48.15321 | 17.61576 | 5051 ft | 266 kts | 227° |
| 2026-05-08 16:53 | 48.14048 | 17.59600 | 4624 ft | 264 kts | 227° |
| 2026-05-08 16:53 | 48.12760 | 17.57583 | 4385 ft | 270 kts | 227° |
| 2026-05-08 16:54 | 48.11464 | 17.55542 | 4173 ft | 270 kts | 227° |
| 2026-05-08 16:54 | 48.10177 | 17.53515 | 3945 ft | 268 kts | 227° |
| 2026-05-08 16:54 | 48.08903 | 17.51498 | 3724 ft | 266 kts | 228° |
| 2026-05-08 16:54 | 48.07628 | 17.49487 | 3493 ft | 266 kts | 227° |
| 2026-05-08 16:55 | 48.06352 | 17.47478 | 3270 ft | 266 kts | 228° |
| 2026-05-08 16:55 | 48.05189 | 17.45350 | 3056 ft | 263 kts | 244° |
| 2026-05-08 16:55 | 48.04724 | 17.42754 | 2972 ft | 259 kts | 271° |
| 2026-05-08 16:55 | 48.05089 | 17.40150 | 2982 ft | 257 kts | 297° |
| 2026-05-08 16:56 | 48.06154 | 17.38021 | 2983 ft | 257 kts | 315° |
| 2026-05-08 16:56 | 48.07401 | 17.36114 | 2761 ft | 255 kts | 315° |
| 2026-05-08 16:56 | 48.08614 | 17.34260 | 2448 ft | 241 kts | 315° |
| 2026-05-08 16:56 | 48.09723 | 17.32549 | 2156 ft | 218 kts | 315° |
| 2026-05-08 16:57 | 48.10716 | 17.31014 | 1892 ft | 192 kts | 315° |
| 2026-05-08 16:57 | 48.11578 | 17.29679 | 1689 ft | 164 kts | 315° |
| 2026-05-08 16:57 | 48.12329 | 17.28518 | 1432 ft | 150 kts | 316° |
| 2026-05-08 16:57 | 48.13037 | 17.27424 | 1234 ft | 144 kts | 315° |
| 2026-05-08 16:58 | 48.13735 | 17.26344 | 1044 ft | 144 kts | 314° |
| 2026-05-08 16:58 | 48.14421 | 17.25281 | 848 ft | 141 kts | 314° |
| 2026-05-08 16:58 | 48.15096 | 17.24237 | 667 ft | 138 kts | 315° |
| 2026-05-08 16:58 | 48.15760 | 17.23205 | 469 ft | 137 kts | 314° |
| 2026-05-08 16:59 | 48.16368 | 17.22269 | 426 ft | 105 kts | 314° |
| 2026-05-08 16:59 | 48.16753 | 17.21671 | 425 ft | 55 kts | 314° |
| 2026-05-08 16:59 | 48.16932 | 17.21392 | 420 ft | 31 kts | 314° |
| 2026-05-08 16:59 | 48.17076 | 17.21166 | 417 ft | 29 kts | 314° |
| 2026-05-08 17:00 | 48.17131 | 17.21048 | 417 ft | 10 kts | 253° |
| 2026-05-08 17:00 | 48.17087 | 17.20951 | 426 ft | 11 kts | 229° |
| 2026-05-08 17:00 | 48.17043 | 17.20864 | 429 ft | 10 kts | 272° |
| 2026-05-08 17:00 | 48.17084 | 17.20776 | 425 ft | 11 kts | 315° |
| 2026-05-08 17:01 | 48.17142 | 17.20687 | 421 ft | 13 kts | 313° |
| 2026-05-08 17:01 | 48.17156 | 17.20564 | 422 ft | 11 kts | 242° |
| 2026-05-08 17:01 | 48.17120 | 17.20505 | 420 ft | 8 kts | 225° |
| 2026-05-08 17:01 | 48.17088 | 17.20438 | 425 ft | 8 kts | 270° |
| 2026-05-08 17:02 | 48.17118 | 17.20379 | 428 ft | 4 kts | 315° |
| 2026-05-08 17:02 | 48.17123 | 17.20372 | 428 ft | 0 kts | 315° |